createdAt,value
2022-09-14T00:00:44.805Z,10.40
2022-09-14T00:03:11.586Z,10.18
2022-09-14T00:05:38.264Z,10.50
2022-09-14T00:08:04.853Z,10.90
2022-09-14T00:10:31.321Z,10.52
2022-09-14T00:12:58.163Z,10.90
2022-09-14T00:15:24.576Z,11.00
2022-09-14T00:17:50.930Z,10.38
2022-09-14T00:20:17.399Z,10.80
2022-09-14T00:22:43.981Z,10.55
2022-09-14T00:25:10.370Z,10.80
2022-09-14T00:27:36.859Z,11.18
2022-09-14T00:30:03.859Z,11.73
2022-09-14T00:32:30.275Z,10.98
2022-09-14T00:34:56.985Z,11.85
2022-09-14T00:37:23.349Z,10.82
2022-09-14T00:39:50.353Z,11.18
2022-09-14T00:42:19.503Z,11.13
2022-09-14T00:44:45.786Z,11.63
2022-09-14T00:47:14.978Z,11.32
2022-09-14T00:49:43.309Z,11.45
2022-09-14T00:52:16.092Z,11.60
2022-09-14T00:54:48.516Z,11.27
2022-09-14T00:57:17.174Z,12.27
2022-09-14T00:59:44.883Z,12.10
2022-09-14T01:02:14.903Z,11.50
2022-09-14T01:04:43.274Z,11.77
2022-09-14T01:07:33.528Z,11.93
2022-09-14T01:10:21.876Z,12.50
2022-09-14T01:13:06.260Z,11.98
2022-09-14T01:15:59.639Z,13.13
2022-09-14T01:18:36.210Z,12.98
2022-09-14T01:21:12.316Z,12.13
2022-09-14T01:24:14.689Z,14.10
2022-09-14T01:26:56.195Z,12.63
2022-09-14T01:29:44.287Z,12.85
2022-09-14T01:32:28.939Z,12.57
2022-09-14T01:35:14.125Z,12.90
2022-09-14T01:37:57.353Z,12.95
2022-09-14T01:40:37.303Z,12.43
2022-09-14T01:43:06.538Z,13.27
2022-09-14T01:45:34.770Z,14.10
2022-09-14T01:48:04.623Z,13.25
2022-09-14T01:50:41.554Z,13.32
2022-09-14T01:53:19.196Z,12.93
2022-09-14T01:56:10.883Z,13.80
2022-09-14T01:58:47.024Z,13.27
2022-09-14T02:01:20.226Z,13.70
2022-09-14T02:03:53.256Z,13.80
2022-09-14T02:06:44.123Z,13.48
2022-09-14T02:09:16.539Z,14.00
2022-09-14T02:11:43.114Z,14.10
2022-09-14T02:14:09.891Z,14.30
2022-09-14T02:16:36.588Z,14.63
2022-09-14T02:19:03.428Z,14.10
2022-09-14T02:21:31.837Z,14.25
2022-09-14T02:23:59.278Z,13.85
2022-09-14T02:26:26.270Z,14.52
2022-09-14T02:28:56.098Z,14.35
2022-09-14T02:31:25.515Z,14.30
2022-09-14T02:34:32.329Z,14.60
2022-09-14T02:37:16.916Z,14.50
2022-09-14T02:40:01.692Z,14.30
2022-09-14T02:42:38.791Z,14.77
2022-09-14T02:45:26.532Z,14.57
2022-09-14T02:48:21.310Z,15.10
2022-09-14T02:51:07.775Z,14.55
2022-09-14T02:53:45.956Z,15.02
2022-09-14T02:56:13.951Z,14.45
2022-09-14T02:58:44.055Z,14.93
2022-09-14T03:01:14.195Z,14.30
2022-09-14T03:03:40.642Z,14.48
2022-09-14T03:06:07.078Z,14.45
2022-09-14T03:08:33.688Z,14.77
2022-09-14T03:11:00.013Z,14.00
2022-09-14T03:13:26.387Z,14.43
2022-09-14T03:15:53.519Z,14.43
2022-09-14T03:18:20.425Z,15.13
2022-09-14T03:20:46.916Z,14.48
2022-09-14T03:23:14.147Z,14.13
2022-09-14T03:25:46.921Z,15.15
2022-09-14T03:28:13.301Z,14.43
2022-09-14T03:30:39.955Z,14.57
2022-09-14T03:33:06.673Z,14.57
2022-09-14T03:35:33.474Z,14.38
2022-09-14T03:38:00.326Z,14.98
2022-09-14T03:40:27.523Z,14.48
2022-09-14T03:43:04.591Z,14.52
2022-09-14T03:45:30.983Z,14.50
2022-09-14T03:47:57.412Z,14.45
2022-09-14T03:50:23.838Z,14.82
2022-09-14T03:52:50.596Z,15.07
2022-09-14T03:55:17.045Z,14.70
2022-09-14T03:57:43.418Z,14.23
2022-09-14T04:00:11.355Z,14.48
2022-09-14T04:02:38.348Z,14.75
2022-09-14T04:05:05.240Z,14.70
2022-09-14T04:07:31.670Z,15.40
2022-09-14T04:09:58.388Z,14.98
2022-09-14T04:12:24.927Z,14.65
2022-09-14T04:14:51.384Z,15.50
2022-09-14T04:17:17.797Z,14.60
2022-09-14T04:19:44.404Z,14.63
2022-09-14T04:22:10.777Z,14.90
2022-09-14T04:24:37.252Z,14.68
2022-09-14T04:27:03.718Z,14.15
2022-09-14T04:29:30.581Z,14.60
2022-09-14T04:31:57.523Z,13.55
2022-09-14T04:34:26.374Z,13.90
2022-09-14T04:36:52.915Z,14.05
2022-09-14T04:39:19.569Z,13.75
2022-09-14T04:41:45.992Z,13.30
2022-09-14T04:44:12.556Z,13.20
2022-09-14T04:46:46.607Z,13.45
2022-09-14T04:49:15.668Z,12.13
2022-09-14T04:51:42.178Z,12.50
2022-09-14T04:54:12.556Z,12.57
2022-09-14T04:56:38.932Z,11.70
2022-09-14T04:59:05.887Z,11.75
2022-09-14T05:01:37.886Z,11.32
2022-09-14T05:04:05.808Z,11.77
2022-09-14T05:06:34.007Z,11.25
2022-09-14T05:09:02.028Z,11.45
2022-09-14T05:11:34.764Z,11.45
2022-09-14T05:14:01.904Z,10.90
2022-09-14T05:16:31.663Z,11.43
2022-09-14T05:19:03.786Z,11.05
2022-09-14T05:21:32.059Z,10.93
2022-09-14T05:24:00.801Z,10.38
2022-09-14T05:26:29.394Z,11.23
2022-09-14T05:28:58.995Z,10.20
2022-09-14T05:31:26.680Z,10.68
2022-09-14T05:33:53.840Z,10.40
2022-09-14T05:36:20.705Z,10.77
2022-09-14T05:38:47.132Z,10.90
2022-09-14T05:41:14.965Z,10.30
2022-09-14T05:43:42.274Z,10.45
2022-09-14T05:46:12.671Z,10.35
2022-09-14T05:48:40.001Z,10.70
2022-09-14T05:51:10.160Z,11.38
2022-09-14T05:53:36.575Z,10.32
2022-09-14T05:56:11.784Z,10.73
2022-09-14T05:58:39.294Z,11.30
2022-09-14T06:01:19.017Z,10.15
2022-09-14T06:03:46.713Z,9.98
2022-09-14T06:06:15.823Z,10.07
2022-09-14T06:08:42.504Z,10.15
2022-09-14T06:11:11.730Z,10.40
2022-09-14T06:13:38.580Z,9.82
2022-09-14T06:16:07.482Z,10.68
2022-09-14T06:18:35.363Z,9.82
2022-09-14T06:21:03.073Z,9.93
2022-09-14T06:23:30.858Z,10.13
2022-09-14T06:25:59.321Z,9.93
2022-09-14T06:28:26.791Z,9.88
2022-09-14T06:30:53.323Z,10.40
2022-09-14T06:33:20.330Z,9.98
2022-09-14T06:35:57.537Z,10.50
2022-09-14T06:38:25.053Z,9.80
2022-09-14T06:40:59.600Z,9.77
2022-09-14T06:43:28.093Z,9.82
2022-09-14T06:46:06.183Z,10.05
2022-09-14T06:48:36.031Z,10.02
2022-09-14T06:51:24.907Z,10.30
2022-09-14T06:53:52.118Z,10.55
2022-09-14T06:56:18.915Z,10.68
2022-09-14T06:58:45.453Z,10.52
2022-09-14T07:01:14.984Z,10.55
2022-09-14T07:03:44.032Z,10.60
2022-09-14T07:06:16.657Z,10.35
2022-09-14T07:08:44.214Z,9.80
2022-09-14T07:11:13.134Z,10.98
2022-09-14T07:13:39.873Z,10.52
2022-09-14T07:16:06.845Z,9.68
2022-09-14T07:18:34.226Z,10.00
2022-09-14T07:21:12.559Z,11.25
2022-09-14T07:23:41.594Z,10.88
2022-09-14T07:26:11.457Z,10.65
2022-09-14T07:28:38.417Z,10.88
2022-09-14T07:31:14.020Z,10.52
2022-09-14T07:33:40.420Z,10.50
2022-09-14T07:36:08.299Z,10.65
2022-09-14T07:38:51.682Z,10.65
2022-09-14T07:41:24.163Z,10.45
2022-09-14T07:43:52.247Z,9.70
2022-09-14T07:46:20.462Z,10.77
2022-09-14T07:48:47.725Z,10.27
2022-09-14T07:51:16.511Z,10.02
2022-09-14T07:53:43.473Z,10.60
2022-09-14T07:56:13.469Z,11.00
2022-09-14T07:58:40.174Z,10.25
2022-09-14T08:01:09.360Z,9.88
2022-09-14T08:03:43.377Z,10.30
2022-09-14T08:06:15.791Z,10.48
2022-09-14T08:08:44.357Z,10.27
2022-09-14T08:11:31.525Z,10.18
2022-09-14T08:14:04.635Z,10.13
2022-09-14T08:16:32.810Z,9.93
2022-09-14T08:19:02.110Z,9.85
2022-09-14T08:21:30.329Z,9.73
2022-09-14T08:23:58.189Z,10.32
2022-09-14T08:26:27.347Z,10.05
2022-09-14T08:28:55.460Z,9.65
2022-09-14T08:31:27.251Z,9.45
2022-09-14T08:34:00.105Z,9.18
2022-09-14T08:36:29.781Z,9.80
2022-09-14T08:38:56.196Z,9.77
2022-09-14T08:41:43.877Z,9.65
2022-09-14T08:44:13.309Z,9.52
2022-09-14T08:46:46.340Z,9.93
2022-09-14T08:49:27.595Z,9.88
2022-09-14T08:51:54.975Z,9.07
2022-09-14T08:54:21.505Z,9.82
2022-09-14T08:56:57.640Z,9.65
2022-09-14T08:59:38.559Z,8.88
2022-09-14T09:02:42.601Z,9.10
2022-09-14T09:05:15.114Z,9.32
2022-09-14T09:07:57.331Z,9.25
2022-09-14T09:10:27.046Z,9.95
2022-09-14T09:13:00.625Z,8.73
2022-09-14T09:15:32.511Z,9.05
2022-09-14T09:18:05.402Z,8.90
2022-09-14T09:20:47.653Z,8.32
2022-09-14T09:23:19.730Z,9.00
2022-09-14T09:25:46.077Z,8.95
2022-09-14T09:28:13.950Z,8.77
2022-09-14T09:30:41.357Z,8.75
2022-09-14T09:33:20.055Z,8.70
2022-09-14T09:35:46.597Z,8.80
2022-09-14T09:38:16.107Z,8.63
2022-09-14T09:40:49.202Z,8.32
2022-09-14T09:43:33.335Z,9.52
2022-09-14T09:46:07.541Z,9.00
2022-09-14T09:48:45.400Z,9.83
2022-09-14T09:51:27.020Z,8.70
2022-09-14T09:53:58.201Z,9.20
2022-09-14T09:56:31.418Z,9.05
2022-09-14T09:58:57.975Z,9.35
2022-09-14T10:01:29.230Z,9.20
2022-09-14T10:04:03.804Z,9.40
2022-09-14T10:06:30.630Z,9.77
2022-09-14T10:08:58.226Z,9.77
2022-09-14T10:11:37.653Z,10.05
2022-09-14T10:14:06.516Z,9.68
2022-09-14T10:16:42.050Z,9.88
2022-09-14T10:19:20.389Z,9.60
2022-09-14T10:22:17.196Z,9.98
2022-09-14T10:24:56.596Z,10.13
2022-09-14T10:27:46.110Z,10.00
2022-09-14T10:30:21.629Z,9.35
2022-09-14T10:33:00.281Z,10.07
2022-09-14T10:35:58.525Z,9.77
2022-09-14T10:38:32.421Z,9.48
2022-09-14T10:41:13.119Z,9.50
2022-09-14T10:44:01.085Z,9.73
2022-09-14T10:46:40.313Z,9.00
2022-09-14T10:49:29.237Z,9.60
2022-09-14T10:52:12.183Z,9.32
2022-09-14T10:54:58.017Z,9.65
2022-09-14T10:57:44.067Z,9.60
2022-09-14T11:00:20.201Z,9.10
2022-09-14T11:03:19.580Z,9.25
2022-09-14T11:05:55.489Z,9.18
2022-09-14T11:08:32.924Z,9.60
2022-09-14T11:11:14.323Z,9.52
2022-09-14T11:14:04.702Z,9.40
2022-09-14T11:17:09.019Z,9.20
2022-09-14T11:19:59.458Z,8.70
2022-09-14T11:22:41.679Z,9.20
2022-09-14T11:25:20.424Z,9.57
2022-09-14T11:27:52.495Z,9.48
2022-09-14T11:30:22.126Z,10.10
2022-09-14T11:33:16.700Z,9.52
2022-09-14T11:35:48.315Z,9.55
2022-09-14T11:38:28.435Z,9.68
2022-09-14T11:43:46.945Z,9.70
2022-09-14T11:46:19.733Z,9.60
2022-09-14T11:49:14.525Z,9.55
2022-09-14T11:52:20.810Z,9.98
2022-09-14T11:54:48.725Z,10.02
2022-09-14T11:57:29.657Z,9.80
2022-09-14T11:59:58.857Z,9.65
2022-09-14T12:02:25.252Z,9.80
2022-09-14T12:05:10.418Z,9.82
2022-09-14T12:07:39.939Z,9.52
2022-09-14T12:10:15.460Z,10.32
2022-09-14T12:12:43.208Z,9.50
2022-09-14T12:15:24.818Z,10.20
2022-09-14T12:17:53.084Z,9.88
2022-09-14T12:20:37.773Z,10.10
2022-09-14T12:23:32.643Z,9.73
2022-09-14T12:26:11.158Z,9.70
2022-09-14T12:28:37.814Z,9.13
2022-09-14T12:31:04.307Z,9.27
2022-09-14T12:33:33.518Z,9.95
2022-09-14T12:36:00.632Z,9.67
2022-09-14T12:38:30.199Z,10.13
2022-09-14T12:40:58.382Z,9.95
2022-09-14T12:43:34.450Z,9.52
2022-09-14T12:46:07.989Z,9.98
2022-09-14T12:48:47.174Z,10.57
2022-09-14T12:51:29.093Z,10.10
2022-09-14T12:54:01.445Z,10.02
2022-09-14T12:56:51.021Z,9.95
2022-09-14T12:59:29.448Z,10.13
2022-09-14T13:02:23.351Z,10.48
2022-09-14T13:04:54.432Z,9.65
2022-09-14T13:07:23.080Z,10.02
2022-09-14T13:09:56.654Z,10.30
2022-09-14T13:12:34.634Z,9.27
2022-09-14T13:15:05.856Z,10.27
2022-09-14T13:17:32.262Z,9.70
2022-09-14T13:20:02.537Z,10.02
2022-09-14T13:22:31.832Z,9.68
2022-09-14T13:25:01.233Z,10.00
2022-09-14T13:27:37.104Z,10.00
2022-09-14T13:30:21.781Z,10.07
2022-09-14T13:32:50.880Z,10.18
2022-09-14T13:35:28.252Z,8.82
2022-09-14T13:37:55.259Z,9.85
2022-09-14T13:40:30.421Z,9.50
2022-09-14T13:42:58.808Z,9.68
2022-09-14T13:45:25.671Z,9.45
2022-09-14T13:47:53.617Z,9.98
2022-09-14T13:50:23.949Z,9.90
2022-09-14T13:53:01.773Z,10.15
2022-09-14T13:55:49.847Z,9.40
2022-09-14T13:58:19.247Z,9.65
2022-09-14T14:01:06.065Z,9.90
2022-09-14T14:03:39.029Z,9.20
2022-09-14T14:06:22.610Z,9.68
2022-09-14T14:09:05.774Z,9.65
2022-09-14T14:11:39.150Z,9.52
2022-09-14T14:14:30.888Z,9.10
2022-09-14T14:17:13.424Z,9.23
2022-09-14T14:19:40.916Z,9.40
2022-09-14T14:22:19.044Z,9.40
2022-09-14T14:25:12.207Z,9.13
2022-09-14T14:27:35.950Z,8.43
2022-09-14T14:30:13.151Z,8.90
2022-09-14T14:32:39.612Z,9.10
2022-09-14T14:35:19.959Z,8.80
2022-09-14T14:37:47.740Z,8.48
2022-09-14T14:40:16.193Z,8.30
2022-09-14T14:42:43.745Z,8.60
2022-09-14T14:45:17.775Z,8.32
2022-09-14T14:47:45.646Z,8.27
2022-09-14T14:50:17.806Z,8.05
2022-09-14T14:52:47.301Z,8.60
2022-09-14T14:55:14.639Z,8.18
2022-09-14T14:57:41.146Z,8.27
2022-09-14T15:00:17.459Z,8.48
2022-09-14T15:02:44.186Z,8.90
2022-09-14T15:05:11.741Z,8.32
2022-09-14T15:07:38.685Z,7.82
2022-09-14T15:10:06.263Z,8.57
2022-09-14T15:12:33.290Z,8.40
2022-09-14T15:15:00.399Z,8.60
2022-09-14T15:17:26.863Z,8.30
2022-09-14T15:19:53.510Z,8.27
2022-09-14T15:22:19.936Z,8.50
2022-09-14T15:24:46.321Z,8.10
2022-09-14T15:27:12.973Z,8.13
2022-09-14T15:29:39.449Z,8.10
2022-09-14T15:32:05.952Z,8.40
2022-09-14T15:34:32.436Z,8.50
2022-09-14T15:36:59.084Z,8.20
2022-09-14T15:39:28.539Z,8.88
2022-09-14T15:41:56.316Z,9.30
2022-09-14T15:44:23.196Z,9.10
2022-09-14T15:46:50.215Z,8.70
2022-09-14T15:49:20.630Z,7.97
2022-09-14T15:51:49.955Z,7.93
2022-09-14T15:54:17.723Z,8.20
2022-09-14T15:56:52.626Z,8.27
2022-09-14T15:59:20.663Z,8.80
2022-09-14T16:01:47.835Z,8.35
2022-09-14T16:04:15.015Z,8.43
2022-09-14T16:06:41.613Z,8.40
2022-09-14T16:09:10.652Z,8.70
2022-09-14T16:11:38.120Z,8.27
2022-09-14T16:14:05.981Z,8.32
2022-09-14T16:16:34.065Z,8.10
2022-09-14T16:19:08.678Z,8.40
2022-09-14T16:21:35.263Z,8.40
2022-09-14T16:24:07.181Z,8.15
2022-09-14T16:26:35.983Z,8.27
2022-09-14T16:29:02.970Z,8.30
2022-09-14T16:31:33.155Z,8.55
2022-09-14T16:34:08.342Z,8.30
2022-09-14T16:36:37.712Z,8.20
2022-09-14T16:39:09.368Z,8.18
2022-09-14T16:41:38.141Z,8.02
2022-09-14T16:44:06.019Z,8.27
2022-09-14T16:46:33.778Z,8.30
2022-09-14T16:49:00.457Z,8.30
2022-09-14T16:51:30.464Z,8.40
2022-09-14T16:53:59.271Z,8.05
2022-09-14T16:56:28.389Z,8.10
2022-09-14T16:58:56.238Z,8.30
2022-09-14T17:01:28.745Z,9.27
2022-09-14T17:03:57.785Z,9.27
2022-09-14T17:06:27.007Z,8.93
2022-09-14T17:08:55.294Z,8.27
2022-09-14T17:11:22.993Z,8.85
2022-09-14T17:13:49.774Z,9.45
2022-09-14T17:16:18.750Z,9.43
2022-09-14T17:18:48.744Z,8.80
2022-09-14T17:21:18.414Z,8.63
2022-09-14T17:23:45.210Z,8.77
2022-09-14T17:26:13.508Z,9.13
2022-09-14T17:28:40.708Z,9.20
2022-09-14T17:31:08.538Z,9.18
2022-09-14T17:33:35.749Z,8.68
2022-09-14T17:36:04.753Z,8.73
2022-09-14T17:38:36.669Z,8.77
2022-09-14T17:41:05.103Z,8.48
2022-09-14T17:43:33.296Z,8.23
2022-09-14T17:45:59.829Z,8.18
2022-09-14T17:48:27.948Z,8.02
2022-09-14T17:50:54.865Z,8.25
2022-09-14T17:53:21.344Z,8.60
2022-09-14T17:55:48.045Z,8.40
2022-09-14T17:58:19.498Z,8.13
2022-09-14T18:00:46.352Z,7.82
2022-09-14T18:03:13.142Z,7.65
2022-09-14T18:05:39.593Z,8.07
2022-09-14T18:08:06.346Z,8.55
2022-09-14T18:10:35.757Z,8.55
2022-09-14T18:13:02.354Z,8.57
2022-09-14T18:15:30.984Z,7.88
2022-09-14T18:17:57.729Z,7.85
2022-09-14T18:20:24.108Z,7.63
2022-09-14T18:22:50.741Z,7.78
2022-09-14T18:25:17.184Z,8.60
2022-09-14T18:27:43.517Z,7.85
2022-09-14T18:30:10.786Z,7.60
2022-09-14T18:32:37.310Z,7.68
2022-09-14T18:35:03.903Z,7.85
2022-09-14T18:37:30.854Z,7.93
2022-09-14T18:39:57.399Z,8.75
2022-09-14T18:42:23.991Z,8.20
2022-09-14T18:44:53.898Z,9.40
2022-09-14T18:47:21.696Z,9.88
2022-09-14T18:49:49.946Z,10.43
2022-09-14T18:52:18.094Z,8.73
2022-09-14T18:54:44.572Z,9.30
2022-09-14T18:57:11.386Z,9.40
2022-09-14T18:59:37.755Z,9.77
2022-09-14T19:02:04.231Z,9.38
2022-09-14T19:04:30.751Z,9.18
2022-09-14T19:06:57.109Z,9.40
2022-09-14T19:09:23.608Z,9.52
2022-09-14T19:11:50.004Z,9.63
2022-09-14T19:14:17.435Z,9.38
2022-09-14T19:16:43.959Z,10.35
2022-09-14T19:19:14.446Z,10.63
2022-09-14T19:21:41.139Z,10.63
2022-09-14T19:24:11.568Z,10.55
2022-09-14T19:26:45.688Z,10.10
2022-09-14T19:29:17.865Z,10.57
2022-09-14T19:31:44.376Z,9.85
2022-09-14T19:34:11.475Z,9.20
2022-09-14T19:36:37.916Z,10.18
2022-09-14T19:39:04.746Z,10.07
2022-09-14T19:41:33.129Z,9.43
2022-09-14T19:44:00.531Z,9.90
2022-09-14T19:46:28.799Z,9.75
2022-09-14T19:48:55.560Z,9.90
2022-09-14T19:51:25.257Z,9.13
2022-09-14T19:53:54.290Z,9.55
2022-09-14T19:56:25.315Z,9.00
2022-09-14T19:58:53.703Z,9.15
2022-09-14T20:01:22.426Z,8.93
2022-09-14T20:03:49.941Z,8.73
2022-09-14T20:06:23.505Z,9.23
2022-09-14T20:08:56.595Z,9.45
2022-09-14T20:11:25.257Z,9.90
2022-09-14T20:13:56.949Z,9.73
2022-09-14T20:16:27.831Z,10.75
2022-09-14T20:18:55.368Z,10.35
2022-09-14T20:21:24.216Z,10.52
2022-09-14T20:24:15.207Z,9.90
2022-09-14T20:26:42.792Z,10.80
2022-09-14T20:29:09.206Z,10.40
2022-09-14T20:31:35.885Z,10.38
2022-09-14T20:34:02.368Z,10.48
2022-09-14T20:36:28.750Z,11.18
2022-09-14T20:38:56.794Z,11.25
2022-09-14T20:41:25.245Z,12.13
2022-09-14T20:43:52.908Z,10.70
2022-09-14T20:46:22.819Z,10.57
2022-09-14T20:48:50.326Z,11.02
2022-09-14T20:51:20.018Z,10.82
2022-09-14T20:53:47.329Z,11.98
2022-09-14T20:56:16.765Z,11.38
2022-09-14T20:58:44.111Z,11.03
2022-09-14T21:01:18.920Z,11.25
2022-09-14T21:03:46.974Z,11.10
2022-09-14T21:06:16.466Z,11.65
2022-09-14T21:08:43.253Z,11.48
2022-09-14T21:11:13.557Z,10.55
2022-09-14T21:16:18.760Z,10.15
2022-09-14T21:18:47.022Z,10.65
2022-09-14T21:21:15.971Z,10.82
2022-09-14T21:23:43.256Z,10.80
2022-09-14T21:26:10.897Z,11.18
2022-09-14T21:28:38.588Z,10.77
2022-09-14T21:31:06.954Z,11.82
2022-09-14T21:33:35.440Z,10.93
2022-09-14T21:36:07.916Z,11.20
2022-09-14T21:38:35.166Z,10.48
2022-09-14T21:41:02.518Z,11.27
2022-09-14T21:43:29.356Z,11.40
2022-09-14T21:45:58.372Z,11.15
2022-09-14T21:48:25.325Z,11.18
2022-09-14T21:51:17.189Z,11.10
2022-09-14T21:53:51.566Z,10.70
2022-09-14T21:56:18.589Z,11.27
2022-09-14T21:58:49.154Z,11.13
2022-09-14T22:01:16.422Z,11.00
2022-09-14T22:03:43.348Z,11.15
2022-09-14T22:06:12.574Z,10.80
2022-09-14T22:08:39.929Z,10.73
2022-09-14T22:11:08.922Z,10.73
2022-09-14T22:13:35.434Z,11.05
2022-09-14T22:16:08.062Z,10.52
2022-09-14T22:18:36.947Z,10.85
2022-09-14T22:21:04.846Z,10.77
2022-09-14T22:23:32.414Z,10.13
2022-09-14T22:25:59.356Z,10.50
2022-09-14T22:28:25.826Z,11.52
2022-09-14T22:30:54.212Z,11.00
2022-09-14T22:33:22.828Z,10.18
2022-09-14T22:35:57.693Z,10.55
2022-09-14T22:38:26.044Z,10.75
2022-09-14T22:41:00.818Z,10.52
2022-09-14T22:43:28.175Z,10.50
2022-09-14T22:45:55.229Z,10.90
2022-09-14T22:48:23.384Z,10.65
2022-09-14T22:50:51.819Z,10.80
2022-09-14T22:53:18.895Z,10.43
2022-09-14T22:55:45.572Z,11.32
2022-09-14T22:58:14.320Z,10.18
2022-09-14T23:00:41.653Z,10.27
2022-09-14T23:03:09.609Z,10.15
2022-09-14T23:05:37.848Z,10.85
2022-09-14T23:08:05.843Z,10.65
2022-09-14T23:10:35.858Z,10.60
2022-09-14T23:13:02.227Z,10.52
2022-09-14T23:15:28.695Z,10.85
2022-09-14T23:17:55.076Z,10.43
2022-09-14T23:20:21.484Z,10.52
2022-09-14T23:22:47.840Z,10.50
2022-09-14T23:25:14.403Z,10.40
2022-09-14T23:27:40.824Z,10.77
2022-09-14T23:30:07.752Z,10.60
2022-09-14T23:32:34.182Z,10.38
2022-09-14T23:35:01.284Z,9.93
2022-09-14T23:37:27.793Z,9.80
2022-09-14T23:39:54.201Z,10.68
2022-09-14T23:42:20.538Z,10.20
2022-09-14T23:44:46.944Z,10.23
2022-09-14T23:47:13.372Z,10.30
2022-09-14T23:49:39.851Z,9.90
2022-09-14T23:52:06.362Z,9.80
2022-09-14T23:54:32.730Z,9.85
2022-09-14T23:56:59.315Z,9.65
2022-09-14T23:59:25.686Z,10.00
